sensor_id;sensor_type;location;lat;lon;timestamp;pressure;altitude;pressure_sealevel;temperature;humidity
74437;BME280;62868;52.360;30.424;2023-03-23T00:04:00;1025.3;;;5.7;57.8
74437;BME280;62868;52.360;30.424;2023-03-23T00:08:45;1025.3;;;5.6;57.9
74437;BME280;62868;52.360;30.424;2023-03-23T00:14:10;1025.2;;;5.5;58
74437;BME280;62868;52.360;30.424;2023-03-23T00:18:59;1025.3;;;5.4;58.2
74437;BME280;62868;52.360;30.424;2023-03-23T00:24:22;1025.2;;;5.3;58.2
74437;BME280;62868;52.360;30.424;2023-03-23T00:28:44;1025.2;;;5.3;58.2
74437;BME280;62868;52.360;30.424;2023-03-23T00:33:35;1025.1;;;5.2;58.4
74437;BME280;62868;52.360;30.424;2023-03-23T00:39:12;1025.1;;;5.1;58.5
74437;BME280;62868;52.360;30.424;2023-03-23T00:44:00;1025;;;5.1;58.6
74437;BME280;62868;52.360;30.424;2023-03-23T00:49:20;1025;;;5;58.7
74437;BME280;62868;52.360;30.424;2023-03-23T00:54:00;1025;;;5;58.8
74437;BME280;62868;52.360;30.424;2023-03-23T00:58:34;1025;;;5.1;58.8
74437;BME280;62868;52.360;30.424;2023-03-23T01:04:24;1025;;;5.1;58.9
74437;BME280;62868;52.360;30.424;2023-03-23T01:09:01;1024.9;;;5.2;58.9
74437;BME280;62868;52.360;30.424;2023-03-23T01:14:23;1024.8;;;5.3;58.8
74437;BME280;62868;52.360;30.424;2023-03-23T01:19:00;1024.7;;;5.4;58.8
74437;BME280;62868;52.360;30.424;2023-03-23T01:23:34;1024.7;;;5.5;58.8
74437;BME280;62868;52.360;30.424;2023-03-23T01:29:14;1024.7;;;5.7;58.7
74437;BME280;62868;52.360;30.424;2023-03-23T01:34:03;1024.6;;;5.9;58.7
74437;BME280;62868;52.360;30.424;2023-03-23T01:39:24;1024.6;;;6;58.7
74437;BME280;62868;52.360;30.424;2023-03-23T01:44:04;1024.6;;;6.2;58.7
74437;BME280;62868;52.360;30.424;2023-03-23T01:48:35;1024.6;;;6.3;58.7
74437;BME280;62868;52.360;30.424;2023-03-23T01:54:13;1024.5;;;6.4;58.8
74437;BME280;62868;52.360;30.424;2023-03-23T01:59:00;1024.5;;;6.4;58.8
74437;BME280;62868;52.360;30.424;2023-03-23T02:04:24;1024.5;;;6.5;58.8
74437;BME280;62868;52.360;30.424;2023-03-23T02:09:00;1024.5;;;6.7;58.7
74437;BME280;62868;52.360;30.424;2023-03-23T02:13:34;1024.5;;;6.8;58.7
74437;BME280;62868;52.360;30.424;2023-03-23T02:19:07;1024.5;;;6.9;58.8
74437;BME280;62868;52.360;30.424;2023-03-23T02:24:04;1024.5;;;6.9;58.8
74437;BME280;62868;52.360;30.424;2023-03-23T02:29:30;1024.5;;;6.9;58.9
74437;BME280;62868;52.360;30.424;2023-03-23T02:34:13;1024.4;;;6.8;59
74437;BME280;62868;52.360;30.424;2023-03-23T02:38:52;1024.4;;;6.9;58.9
74437;BME280;62868;52.360;30.424;2023-03-23T02:43:52;1024.4;;;6.9;58.9
74437;BME280;62868;52.360;30.424;2023-03-23T02:49:03;1024.4;;;7;58.9
74437;BME280;62868;52.360;30.424;2023-03-23T02:54:24;1024.3;;;7.2;58.9
74437;BME280;62868;52.360;30.424;2023-03-23T02:58:50;1024.3;;;7.2;58.9
74437;BME280;62868;52.360;30.424;2023-03-23T03:03:44;1024.3;;;7.3;59
74437;BME280;62868;52.360;30.424;2023-03-23T03:09:13;1024.3;;;7.3;59
74437;BME280;62868;52.360;30.424;2023-03-23T03:13:44;1024.3;;;7.3;59.1
74437;BME280;62868;52.360;30.424;2023-03-23T03:19:19;1024.4;;;7.3;59.1
74437;BME280;62868;52.360;30.424;2023-03-23T03:24:03;1024.3;;;7.4;59.1
74437;BME280;62868;52.360;30.424;2023-03-23T03:28:34;1024.3;;;7.4;59.1
74437;BME280;62868;52.360;30.424;2023-03-23T03:34:11;1024.3;;;7.4;59.2
74437;BME280;62868;52.360;30.424;2023-03-23T03:38:46;1024.2;;;7.5;59.2
74437;BME280;62868;52.360;30.424;2023-03-23T03:44:18;1024.3;;;7.5;59.3
74437;BME280;62868;52.360;30.424;2023-03-23T03:49:01;1024.3;;;7.6;59.3
74437;BME280;62868;52.360;30.424;2023-03-23T03:53:34;1024.3;;;7.6;59.3
74437;BME280;62868;52.360;30.424;2023-03-23T03:59:14;1024.2;;;7.7;59.4
74437;BME280;62868;52.360;30.424;2023-03-23T04:03:34;1024.2;;;7.7;59.3
74437;BME280;62868;52.360;30.424;2023-03-23T04:09:22;1024.1;;;7.8;59.4
74437;BME280;62868;52.360;30.424;2023-03-23T04:13:34;1024.1;;;7.8;59.4
74437;BME280;62868;52.360;30.424;2023-03-23T04:18:44;1024.1;;;7.8;59.4
74437;BME280;62868;52.360;30.424;2023-03-23T04:24:12;1024.1;;;7.9;59.5
74437;BME280;62868;52.360;30.424;2023-03-23T04:29:03;1024.1;;;7.9;59.5
74437;BME280;62868;52.360;30.424;2023-03-23T04:34:23;1024.2;;;7.9;59.6
74437;BME280;62868;52.360;30.424;2023-03-23T04:39:00;1024.2;;;7.9;59.6
74437;BME280;62868;52.360;30.424;2023-03-23T04:43:34;1024.2;;;8;59.6
74437;BME280;62868;52.360;30.424;2023-03-23T04:49:08;1024.1;;;8;59.6
74437;BME280;62868;52.360;30.424;2023-03-23T04:53:53;1024.2;;;8;59.7
74437;BME280;62868;52.360;30.424;2023-03-23T04:59:20;1024.1;;;8;59.7
74437;BME280;62868;52.360;30.424;2023-03-23T05:04:12;1024.1;;;8.1;59.7
74437;BME280;62868;52.360;30.424;2023-03-23T05:08:35;1024.1;;;8.2;59.8
74437;BME280;62868;52.360;30.424;2023-03-23T05:14:13;1024.1;;;8.3;59.8
74437;BME280;62868;52.360;30.424;2023-03-23T05:19:21;1024;;;8.4;59.8
74437;BME280;62868;52.360;30.424;2023-03-23T05:24:21;1023.9;;;8.6;59.7
74437;BME280;62868;52.360;30.424;2023-03-23T05:29:03;1023.9;;;8.7;59.7
74437;BME280;62868;52.360;30.424;2023-03-23T05:33:45;1023.9;;;8.8;59.6
74437;BME280;62868;52.360;30.424;2023-03-23T05:39:01;1024;;;8.9;59.6
74437;BME280;62868;52.360;30.424;2023-03-23T05:43:45;1023.9;;;8.9;59.7
74437;BME280;62868;52.360;30.424;2023-03-23T05:49:23;1023.9;;;9;59.7
74437;BME280;62868;52.360;30.424;2023-03-23T05:54:03;1024.1;;;9.2;59.6
74437;BME280;62868;52.360;30.424;2023-03-23T05:58:41;1024.1;;;9.5;59.5
74437;BME280;62868;52.360;30.424;2023-03-23T06:04:13;1024.2;;;9.7;59.3
74437;BME280;62868;52.360;30.424;2023-03-23T06:08:35;1024.1;;;9.9;59.3
74437;BME280;62868;52.360;30.424;2023-03-23T06:14:21;1024.1;;;10;59.2
74437;BME280;62868;52.360;30.424;2023-03-23T06:19:23;1024;;;10.2;59
74437;BME280;62868;52.360;30.424;2023-03-23T06:23:35;1023.9;;;10.4;58.9
74437;BME280;62868;52.360;30.424;2023-03-23T06:28:59;1023.8;;;10.5;58.9
74437;BME280;62868;52.360;30.424;2023-03-23T06:34:21;1023.8;;;10.5;58.8
74437;BME280;62868;52.360;30.424;2023-03-23T06:39:21;1023.9;;;10.8;58.7
74437;BME280;62868;52.360;30.424;2023-03-23T06:43:51;1023.9;;;10.9;58.7
74437;BME280;62868;52.360;30.424;2023-03-23T06:48:45;1023.9;;;11;58.6
74437;BME280;62868;52.360;30.424;2023-03-23T06:54:01;1023.9;;;11.2;58.5
74437;BME280;62868;52.360;30.424;2023-03-23T06:58:35;1023.8;;;11.3;58.4
74437;BME280;62868;52.360;30.424;2023-03-23T07:04:05;1023.8;;;11.3;58.4
74437;BME280;62868;52.360;30.424;2023-03-23T07:09:03;1023.8;;;11.4;58.4
74437;BME280;62868;52.360;30.424;2023-03-23T07:13:45;1023.7;;;11.5;58.3
74437;BME280;62868;52.360;30.424;2023-03-23T07:19:11;1023.7;;;11.5;58.3
74437;BME280;62868;52.360;30.424;2023-03-23T07:23:45;1023.7;;;11.7;58.2
74437;BME280;62868;52.360;30.424;2023-03-23T07:29:23;1023.8;;;11.7;58.2
74437;BME280;62868;52.360;30.424;2023-03-23T07:33:51;1023.7;;;11.7;58.2
74437;BME280;62868;52.360;30.424;2023-03-23T07:39:05;1023.7;;;11.8;58.1
74437;BME280;62868;52.360;30.424;2023-03-23T07:43:47;1023.6;;;11.9;57.9
74437;BME280;62868;52.360;30.424;2023-03-23T07:48:45;1023.6;;;12.1;57.6
74437;BME280;62868;52.360;30.424;2023-03-23T07:54:23;1023.6;;;12.3;57.3
74437;BME280;62868;52.360;30.424;2023-03-23T07:59:03;1023.5;;;12.4;57.1
74437;BME280;62868;52.360;30.424;2023-03-23T08:03:35;1023.5;;;12.5;56.9
74437;BME280;62868;52.360;30.424;2023-03-23T08:09:13;1023.5;;;12.6;56.8
74437;BME280;62868;52.360;30.424;2023-03-23T08:13:35;1023.5;;;12.7;56.6
74437;BME280;62868;52.360;30.424;2023-03-23T08:19:21;1023.4;;;12.9;56.3
74437;BME280;62868;52.360;30.424;2023-03-23T08:24:03;1023.4;;;13.1;56
74437;BME280;62868;52.360;30.424;2023-03-23T08:28:57;1023.4;;;13.3;55.8
74437;BME280;62868;52.360;30.424;2023-03-23T08:34:23;1023.3;;;13.6;55.4
74437;BME280;62868;52.360;30.424;2023-03-23T08:38:35;1023.3;;;13.8;55
74437;BME280;62868;52.360;30.424;2023-03-23T08:44:19;1023.2;;;14;54.8
74437;BME280;62868;52.360;30.424;2023-03-23T08:48:45;1023.2;;;14.2;54.5
74437;BME280;62868;52.360;30.424;2023-03-23T08:53:45;1023.2;;;14.6;54
74437;BME280;62868;52.360;30.424;2023-03-23T08:59:11;1023.2;;;14.7;53.9
74437;BME280;62868;52.360;30.424;2023-03-23T09:03:53;1023.2;;;14.8;53.6
74437;BME280;62868;52.360;30.424;2023-03-23T09:09:19;1023.2;;;14.9;53.5
74437;BME280;62868;52.360;30.424;2023-03-23T09:13:47;1023.2;;;15;53.2
74437;BME280;62868;52.360;30.424;2023-03-23T09:19:01;1023.2;;;15.1;53
74437;BME280;62868;52.360;30.424;2023-03-23T09:23:37;1023.1;;;15.3;52.7
74437;BME280;62868;52.360;30.424;2023-03-23T09:28:35;1023.1;;;15.8;52.2
74437;BME280;62868;52.360;30.424;2023-03-23T09:34:03;1023.1;;;16.1;51.8
74437;BME280;62868;52.360;30.424;2023-03-23T09:39:01;1023;;;16.5;51.3
74437;BME280;62868;52.360;30.424;2023-03-23T09:43:56;1023;;;16.7;50.9
74437;BME280;62868;52.360;30.424;2023-03-23T09:49:13;1022.9;;;16.7;50.8
74437;BME280;62868;52.360;30.424;2023-03-23T09:53:36;1022.9;;;16.6;50.8
74437;BME280;62868;52.360;30.424;2023-03-23T09:59:23;1022.8;;;16.4;50.7
74437;BME280;62868;52.360;30.424;2023-03-23T10:03:37;1022.8;;;16.5;50.5
74437;BME280;62868;52.360;30.424;2023-03-23T10:08:35;1022.8;;;16.5;50.3
74437;BME280;62868;52.360;30.424;2023-03-23T10:14:16;1022.7;;;16.6;50.1
74437;BME280;62868;52.360;30.424;2023-03-23T10:18:54;1022.7;;;16.6;50
74437;BME280;62868;52.360;30.424;2023-03-23T10:24:26;1022.7;;;16.6;49.9
74437;BME280;62868;52.360;30.424;2023-03-23T10:28:51;1022.6;;;16.5;49.8
74437;BME280;62868;52.360;30.424;2023-03-23T10:33:55;1022.6;;;16.5;49.8
74437;BME280;62868;52.360;30.424;2023-03-23T10:39:02;1022.6;;;16.4;49.7
74437;BME280;62868;52.360;30.424;2023-03-23T10:43:59;1022.6;;;16.2;49.8
74437;BME280;62868;52.360;30.424;2023-03-23T10:48:57;1022.6;;;16.2;49.9
74437;BME280;62868;52.360;30.424;2023-03-23T10:54:03;1022.5;;;16;49.9
74437;BME280;62868;52.360;30.424;2023-03-23T10:58:53;1022.4;;;16.1;49.7
74437;BME280;62868;52.360;30.424;2023-03-23T11:04:15;1022.3;;;16.3;49.5
74437;BME280;62868;52.360;30.424;2023-03-23T11:09:33;1022.3;;;16.2;49.4
74437;BME280;62868;52.360;30.424;2023-03-23T11:14:26;1022.2;;;16.2;49.4
74437;BME280;62868;52.360;30.424;2023-03-23T11:19:11;1022.2;;;16.3;49.2
74437;BME280;62868;52.360;30.424;2023-03-23T11:23:35;1022.1;;;16.6;49
74437;BME280;62868;52.360;30.424;2023-03-23T11:29:23;1022;;;16.7;48.8
74437;BME280;62868;52.360;30.424;2023-03-23T11:33:49;1021.9;;;17;48.5
74437;BME280;62868;52.360;30.424;2023-03-23T11:39:24;1021.8;;;17.3;48.2
74437;BME280;62868;52.360;30.424;2023-03-23T11:44:07;1021.8;;;17.3;48
74437;BME280;62868;52.360;30.424;2023-03-23T11:48:49;1021.8;;;17.3;47.9
74437;BME280;62868;52.360;30.424;2023-03-23T11:54:09;1021.7;;;17.4;47.6
74437;BME280;62868;52.360;30.424;2023-03-23T11:58:35;1021.6;;;17.5;47.4
74437;BME280;62868;52.360;30.424;2023-03-23T12:04:27;1021.6;;;17.6;47.2
74437;BME280;62868;52.360;30.424;2023-03-23T12:09:02;1021.4;;;17.9;46.8
74437;BME280;62868;52.360;30.424;2023-03-23T12:14:09;1021.4;;;18.1;46.5
74437;BME280;62868;52.360;30.424;2023-03-23T12:19:27;1021.3;;;18.1;46.4
74437;BME280;62868;52.360;30.424;2023-03-23T12:23:47;1021.3;;;18.1;46.3
74437;BME280;62868;52.360;30.424;2023-03-23T12:33:48;1021.2;;;18.3;46.1
74437;BME280;62868;52.360;30.424;2023-03-23T12:39:10;1021.2;;;18.3;46.1
74437;BME280;62868;52.360;30.424;2023-03-23T12:44:26;1021.2;;;18.2;46.2
74437;BME280;62868;52.360;30.424;2023-03-23T12:49:24;1021.1;;;18.1;46.2
74437;BME280;62868;52.360;30.424;2023-03-23T12:54:07;1021;;;17.9;46.1
74437;BME280;62868;52.360;30.424;2023-03-23T12:59:09;1020.9;;;17.8;46
74437;BME280;62868;52.360;30.424;2023-03-23T13:04:06;1020.8;;;18;45.9
74437;BME280;62868;52.360;30.424;2023-03-23T13:09:27;1020.8;;;18;45.7
74437;BME280;62868;52.360;30.424;2023-03-23T13:13:47;1020.8;;;18;45.7
74437;BME280;62868;52.360;30.424;2023-03-23T13:19:07;1020.8;;;18.1;45.6
74437;BME280;62868;52.360;30.424;2023-03-23T13:24:03;1020.8;;;18.1;45.7
74437;BME280;62868;52.360;30.424;2023-03-23T13:28:55;1020.8;;;18.1;45.7
74437;BME280;62868;52.360;30.424;2023-03-23T13:34:29;1020.7;;;18.1;45.7
74437;BME280;62868;52.360;30.424;2023-03-23T13:38:35;1020.7;;;17.9;45.9
74437;BME280;62868;52.360;30.424;2023-03-23T13:44:15;1020.6;;;17.7;46.1
74437;BME280;62868;52.360;30.424;2023-03-23T13:48:43;1020.6;;;17.6;46.1
74437;BME280;62868;52.360;30.424;2023-03-23T13:54:04;1020.6;;;17.6;46.1
74437;BME280;62868;52.360;30.424;2023-03-23T13:59:07;1020.5;;;17.6;46.1
74437;BME280;62868;52.360;30.424;2023-03-23T14:03:46;1020.4;;;17.6;46.1
74437;BME280;62868;52.360;30.424;2023-03-23T14:08:48;1020.4;;;17.6;46.2
74437;BME280;62868;52.360;30.424;2023-03-23T14:13:36;1020.4;;;17.5;46.3
74437;BME280;62868;52.360;30.424;2023-03-23T14:19:14;1020.3;;;17.3;46.5
74437;BME280;62868;52.360;30.424;2023-03-23T14:24:23;1020.2;;;17.3;46.6
74437;BME280;62868;52.360;30.424;2023-03-23T14:28:37;1020.2;;;17.2;46.7
74437;BME280;62868;52.360;30.424;2023-03-23T14:34:10;1020.2;;;17.1;46.8
74437;BME280;62868;52.360;30.424;2023-03-23T14:38:55;1020.1;;;17.1;46.8
74437;BME280;62868;52.360;30.424;2023-03-23T14:44:06;1020.1;;;17.1;46.9
74437;BME280;62868;52.360;30.424;2023-03-23T14:49:28;1020;;;17.2;46.9
74437;BME280;62868;52.360;30.424;2023-03-23T14:53:35;1020;;;17.2;46.9
74437;BME280;62868;52.360;30.424;2023-03-23T14:59:25;1020;;;17.2;46.9
74437;BME280;62868;52.360;30.424;2023-03-23T15:03:52;1019.9;;;17.2;46.9
74437;BME280;62868;52.360;30.424;2023-03-23T15:09:10;1019.9;;;17.1;47
74437;BME280;62868;52.360;30.424;2023-03-23T15:14:28;1019.8;;;17;47.2
74437;BME280;62868;52.360;30.424;2023-03-23T15:18:45;1019.8;;;16.9;47.4
74437;BME280;62868;52.360;30.424;2023-03-23T15:24:18;1019.7;;;16.8;47.5
74437;BME280;62868;52.360;30.424;2023-03-23T15:29:25;1019.7;;;16.7;47.6
74437;BME280;62868;52.360;30.424;2023-03-23T15:34:05;1019.7;;;16.7;47.7
74437;BME280;62868;52.360;30.424;2023-03-23T15:39:27;1019.7;;;16.5;47.9
74437;BME280;62868;52.360;30.424;2023-03-23T15:43:35;1019.7;;;16.4;48
74437;BME280;62868;52.360;30.424;2023-03-23T15:49:08;1019.7;;;16.3;48.1
74437;BME280;62868;52.360;30.424;2023-03-23T15:54:07;1019.7;;;16.2;48.3
74437;BME280;62868;52.360;30.424;2023-03-23T15:58:47;1019.7;;;16.1;48.5
74437;BME280;62868;52.360;30.424;2023-03-23T16:04:27;1019.7;;;16;48.7
74437;BME280;62868;52.360;30.424;2023-03-23T16:08:35;1019.7;;;15.9;48.9
74437;BME280;62868;52.360;30.424;2023-03-23T16:14:05;1019.6;;;15.8;49.1
74437;BME280;62868;52.360;30.424;2023-03-23T16:19:07;1019.7;;;15.6;49.3
74437;BME280;62868;52.360;30.424;2023-03-23T16:24:25;1019.7;;;15.5;49.6
74437;BME280;62868;52.360;30.424;2023-03-23T16:28:35;1019.7;;;15.3;49.9
74437;BME280;62868;52.360;30.424;2023-03-23T16:33:45;1019.7;;;15.2;50.1
74437;BME280;62868;52.360;30.424;2023-03-23T16:39:17;1019.7;;;15.1;50.4
74437;BME280;62868;52.360;30.424;2023-03-23T16:44:13;1019.6;;;14.8;50.8
74437;BME280;62868;52.360;30.424;2023-03-23T16:49:29;1019.6;;;14.7;51.1
74437;BME280;62868;52.360;30.424;2023-03-23T16:53:57;1019.5;;;14.5;51.4
74437;BME280;62868;52.360;30.424;2023-03-23T16:58:59;1019.5;;;14.5;51.5
74437;BME280;62868;52.360;30.424;2023-03-23T17:04:23;1019.4;;;14.4;51.7
74437;BME280;62868;52.360;30.424;2023-03-23T17:09:11;1019.4;;;14.4;51.8
74437;BME280;62868;52.360;30.424;2023-03-23T17:14:13;1019.4;;;14.3;52.1
74437;BME280;62868;52.360;30.424;2023-03-23T17:18:55;1019.4;;;14.3;52.3
74437;BME280;62868;52.360;30.424;2023-03-23T17:23:35;1019.4;;;14.3;52.4
74437;BME280;62868;52.360;30.424;2023-03-23T17:28:57;1019.4;;;14.2;52.5
74437;BME280;62868;52.360;30.424;2023-03-23T17:34:07;1019.4;;;14.2;52.6
74437;BME280;62868;52.360;30.424;2023-03-23T17:39:23;1019.4;;;14.3;52.6
74437;BME280;62868;52.360;30.424;2023-03-23T17:43:59;1019.3;;;14.3;52.6
74437;BME280;62868;52.360;30.424;2023-03-23T17:48:59;1019.3;;;14.3;52.7
74437;BME280;62868;52.360;30.424;2023-03-23T17:53:45;1019.2;;;14.3;52.7
74437;BME280;62868;52.360;30.424;2023-03-23T17:59:09;1019.2;;;14.3;52.7
74437;BME280;62868;52.360;30.424;2023-03-23T18:04:25;1019.2;;;14.3;52.7
74437;BME280;62868;52.360;30.424;2023-03-23T18:08:59;1019.2;;;14.3;52.7
74437;BME280;62868;52.360;30.424;2023-03-23T18:13:35;1019.2;;;14.3;52.7
74437;BME280;62868;52.360;30.424;2023-03-23T18:18:59;1019.2;;;14.3;52.7
74437;BME280;62868;52.360;30.424;2023-03-23T18:23:49;1019.1;;;14.3;52.7
74437;BME280;62868;52.360;30.424;2023-03-23T18:29:25;1019.1;;;14.3;52.6
74437;BME280;62868;52.360;30.424;2023-03-23T18:33:45;1019.1;;;14.3;52.6
74437;BME280;62868;52.360;30.424;2023-03-23T18:38:35;1019;;;14.3;52.5
74437;BME280;62868;52.360;30.424;2023-03-23T18:43:35;1019.1;;;14.3;52.4
74437;BME280;62868;52.360;30.424;2023-03-23T18:49:11;1019;;;14.4;52.3
74437;BME280;62868;52.360;30.424;2023-03-23T18:54:25;1019;;;14.4;52.2
74437;BME280;62868;52.360;30.424;2023-03-23T18:59:03;1019.1;;;14.5;52.1
74437;BME280;62868;52.360;30.424;2023-03-23T19:03:35;1019;;;14.5;52
74437;BME280;62868;52.360;30.424;2023-03-23T19:08:59;1019;;;14.6;51.8
74437;BME280;62868;52.360;30.424;2023-03-23T19:14:09;1019;;;14.7;51.7
74437;BME280;62868;52.360;30.424;2023-03-23T19:19:23;1019;;;14.7;51.6
74437;BME280;62868;52.360;30.424;2023-03-23T19:23:59;1018.9;;;14.7;51.5
74437;BME280;62868;52.360;30.424;2023-03-23T19:28:47;1018.9;;;14.8;51.4
74437;BME280;62868;52.360;30.424;2023-03-23T19:33:59;1018.9;;;14.8;51.2
74437;BME280;62868;52.360;30.424;2023-03-23T19:39:11;1018.9;;;14.8;51.2
74437;BME280;62868;52.360;30.424;2023-03-23T19:44:25;1018.8;;;14.8;51
74437;BME280;62868;52.360;30.424;2023-03-23T19:49:13;1018.8;;;14.9;50.9
74437;BME280;62868;52.360;30.424;2023-03-23T19:53:47;1018.8;;;14.9;50.8
74437;BME280;62868;52.360;30.424;2023-03-23T19:58:45;1018.8;;;14.9;50.7
74437;BME280;62868;52.360;30.424;2023-03-23T20:04:11;1018.8;;;14.9;50.7
74437;BME280;62868;52.360;30.424;2023-03-23T20:09:09;1018.7;;;14.9;50.6
74437;BME280;62868;52.360;30.424;2023-03-23T20:14:15;1018.7;;;14.9;50.4
74437;BME280;62868;52.360;30.424;2023-03-23T20:18:35;1018.7;;;14.9;50.4
74437;BME280;62868;52.360;30.424;2023-03-23T20:24:13;1018.6;;;14.9;50.3
74437;BME280;62868;52.360;30.424;2023-03-23T20:29:09;1018.6;;;14.9;50.1
74437;BME280;62868;52.360;30.424;2023-03-23T20:34:25;1018.5;;;15;50.1
74437;BME280;62868;52.360;30.424;2023-03-23T20:39:09;1018.5;;;15;50
74437;BME280;62868;52.360;30.424;2023-03-23T20:43:36;1018.5;;;15;49.8
74437;BME280;62868;52.360;30.424;2023-03-23T20:48:36;1018.4;;;15;49.7
74437;BME280;62868;52.360;30.424;2023-03-23T20:54:09;1018.4;;;14.9;49.7
74437;BME280;62868;52.360;30.424;2023-03-23T20:59:23;1018.4;;;14.9;49.6
74437;BME280;62868;52.360;30.424;2023-03-23T21:04:08;1018.4;;;15;49.5
74437;BME280;62868;52.360;30.424;2023-03-23T21:08:57;1018.4;;;15;49.4
74437;BME280;62868;52.360;30.424;2023-03-23T21:13:47;1018.3;;;15;49.4
74437;BME280;62868;52.360;30.424;2023-03-23T21:19:23;1018.2;;;15;49.3
74437;BME280;62868;52.360;30.424;2023-03-23T21:24:23;1018.2;;;15;49.3
74437;BME280;62868;52.360;30.424;2023-03-23T21:29:09;1018.2;;;15;49.2
74437;BME280;62868;52.360;30.424;2023-03-23T21:33:47;1018.2;;;15;49.1
74437;BME280;62868;52.360;30.424;2023-03-23T21:38:59;1018.2;;;15;49
74437;BME280;62868;52.360;30.424;2023-03-23T21:43:59;1018.2;;;15;48.9
74437;BME280;62868;52.360;30.424;2023-03-23T21:49:25;1018.2;;;15;48.8
74437;BME280;62868;52.360;30.424;2023-03-23T21:54:03;1018.2;;;15;48.8
74437;BME280;62868;52.360;30.424;2023-03-23T21:58:55;1018.1;;;15;48.7
74437;BME280;62868;52.360;30.424;2023-03-23T22:03:57;1018.1;;;15;48.7
74437;BME280;62868;52.360;30.424;2023-03-23T22:09:09;1018.1;;;15.1;48.6
74437;BME280;62868;52.360;30.424;2023-03-23T22:14:25;1018.1;;;15.1;48.5
74437;BME280;62868;52.360;30.424;2023-03-23T22:19:13;1018;;;15.1;48.4
74437;BME280;62868;52.360;30.424;2023-03-23T22:23:35;1017.9;;;15.1;48.4
74437;BME280;62868;52.360;30.424;2023-03-23T22:28:48;1017.8;;;15;48.4
74437;BME280;62868;52.360;30.424;2023-03-23T22:34:09;1017.8;;;15;48.4
74437;BME280;62868;52.360;30.424;2023-03-23T22:39:25;1017.8;;;15;48.3
74437;BME280;62868;52.360;30.424;2023-03-23T22:44:07;1017.7;;;15;48.2
74437;BME280;62868;52.360;30.424;2023-03-23T22:48:47;1017.7;;;15;48.2
74437;BME280;62868;52.360;30.424;2023-03-23T22:53:35;1017.6;;;15;48.1
74437;BME280;62868;52.360;30.424;2023-03-23T22:59:09;1017.5;;;15.1;48
74437;BME280;62868;52.360;30.424;2023-03-23T23:04:25;1017.5;;;15.1;48
74437;BME280;62868;52.360;30.424;2023-03-23T23:08:37;1017.4;;;15.1;47.9
74437;BME280;62868;52.360;30.424;2023-03-23T23:13:35;1017.4;;;15.1;47.9
74437;BME280;62868;52.360;30.424;2023-03-23T23:18:47;1017.3;;;15;47.9
74437;BME280;62868;52.360;30.424;2023-03-23T23:24:13;1017.3;;;15;47.9
74437;BME280;62868;52.360;30.424;2023-03-23T23:29:25;1017.3;;;14.9;47.8
74437;BME280;62868;52.360;30.424;2023-03-23T23:34:25;1017.2;;;14.9;47.8
74437;BME280;62868;52.360;30.424;2023-03-23T23:38:45;1017.2;;;14.9;47.8
74437;BME280;62868;52.360;30.424;2023-03-23T23:43:45;1017.1;;;14.9;47.8
74437;BME280;62868;52.360;30.424;2023-03-23T23:49:13;1017.1;;;14.9;47.7
74437;BME280;62868;52.360;30.424;2023-03-23T23:54:27;1017.1;;;14.9;47.8
74437;BME280;62868;52.360;30.424;2023-03-23T23:59:13;1017.4;;;14.9;47.7
